createdAt,value
2019-05-15T00:00:34.449Z,90.60
2019-05-15T00:03:01.963Z,90.60
2019-05-15T00:05:29.641Z,90.60
2019-05-15T00:07:59.259Z,91.10
2019-05-15T00:10:28.791Z,91.10
2019-05-15T00:12:58.040Z,91.00
2019-05-15T00:15:27.802Z,91.30
2019-05-15T00:17:55.097Z,90.70
2019-05-15T00:20:22.799Z,91.10
2019-05-15T00:22:50.565Z,90.90
2019-05-15T00:25:18.871Z,91.10
2019-05-15T00:27:48.943Z,90.90
2019-05-15T00:30:18.288Z,90.60
2019-05-15T00:32:48.675Z,91.70
2019-05-15T00:35:18.247Z,91.10
2019-05-15T00:37:45.895Z,92.00
2019-05-15T00:40:13.559Z,91.80
2019-05-15T00:42:41.137Z,92.50
2019-05-15T00:45:09.501Z,91.60
2019-05-15T00:47:39.794Z,91.80
2019-05-15T00:50:09.023Z,91.20
2019-05-15T00:52:39.149Z,92.60
2019-05-15T00:55:08.642Z,91.90
2019-05-15T00:57:39.094Z,92.50
2019-05-15T01:00:08.202Z,93.00
2019-05-15T01:02:35.983Z,92.20
2019-05-15T01:05:05.142Z,93.00
2019-05-15T01:07:32.761Z,93.70
2019-05-15T01:10:00.478Z,93.40
2019-05-15T01:12:29.142Z,93.20
2019-05-15T01:14:58.307Z,93.30
2019-05-15T01:17:26.127Z,93.20
2019-05-15T01:19:53.703Z,93.90
2019-05-15T01:22:21.302Z,93.20
2019-05-15T01:24:48.863Z,94.00
2019-05-15T01:27:18.436Z,94.50
2019-05-15T01:29:46.041Z,94.60
2019-05-15T01:32:13.604Z,94.60
2019-05-15T01:34:41.071Z,94.50
2019-05-15T01:37:08.939Z,94.90
2019-05-15T01:39:38.527Z,94.60
2019-05-15T01:42:08.212Z,96.20
2019-05-15T01:44:35.617Z,95.30
2019-05-15T01:47:03.303Z,95.80
2019-05-15T01:49:30.981Z,95.50
2019-05-15T01:51:58.700Z,95.70
2019-05-15T01:54:28.680Z,95.80
2019-05-15T01:56:55.831Z,96.00
2019-05-15T01:59:23.425Z,96.50
2019-05-15T02:01:51.233Z,96.10
2019-05-15T02:04:20.163Z,96.50
2019-05-15T02:06:48.286Z,96.00
2019-05-15T02:09:18.570Z,96.00
2019-05-15T02:11:48.762Z,96.20
2019-05-15T02:14:15.853Z,96.50
2019-05-15T02:16:43.470Z,96.60
2019-05-15T02:19:11.142Z,95.80
2019-05-15T02:21:38.945Z,95.80
2019-05-15T02:24:07.959Z,97.20
2019-05-15T02:26:38.675Z,96.00
2019-05-15T02:29:07.640Z,96.10
2019-05-15T02:31:35.142Z,96.70
2019-05-15T02:34:03.427Z,96.90
2019-05-15T02:36:31.091Z,96.10
2019-05-15T02:38:59.677Z,96.30
2019-05-15T02:41:29.888Z,96.50
2019-05-15T02:43:59.189Z,96.50
2019-05-15T02:46:29.805Z,96.20
2019-05-15T02:48:59.035Z,96.40
2019-05-15T02:51:26.173Z,95.70
2019-05-15T02:53:53.653Z,96.00
2019-05-15T02:56:21.145Z,96.30
2019-05-15T02:58:49.246Z,96.10
2019-05-15T03:01:18.946Z,95.80
2019-05-15T03:03:49.861Z,96.20
2019-05-15T03:06:19.047Z,95.50
2019-05-15T03:08:49.229Z,95.90
2019-05-15T03:11:18.956Z,96.10
2019-05-15T03:13:49.970Z,95.60
2019-05-15T03:16:19.075Z,95.50
2019-05-15T03:18:45.135Z,96.00
2019-05-15T03:21:12.617Z,95.50
2019-05-15T03:23:40.865Z,95.50
2019-05-15T03:26:09.113Z,95.50
2019-05-15T03:28:39.125Z,95.80
2019-05-15T03:31:26.452Z,95.80
2019-05-15T03:33:43.919Z,95.20
2019-05-15T03:36:12.452Z,94.00
2019-05-15T03:38:39.111Z,95.10
2019-05-15T03:41:05.129Z,94.40
2019-05-15T03:43:32.608Z,95.00
2019-05-15T03:46:01.551Z,95.00
2019-05-15T03:48:29.584Z,95.20
2019-05-15T03:50:59.748Z,95.40
2019-05-15T03:53:29.696Z,94.80
2019-05-15T03:55:58.980Z,94.40
2019-05-15T03:58:28.470Z,93.40
2019-05-15T04:00:55.222Z,93.50
2019-05-15T04:03:23.461Z,93.90
2019-05-15T04:05:52.787Z,94.10
2019-05-15T04:08:20.698Z,93.70
2019-05-15T04:10:48.929Z,93.70
2019-05-15T04:13:19.635Z,93.50
2019-05-15T04:15:46.172Z,93.80
2019-05-15T04:18:14.888Z,93.20
2019-05-15T04:20:42.340Z,93.70
2019-05-15T04:23:11.032Z,93.70
2019-05-15T04:25:40.082Z,93.80
2019-05-15T04:28:09.636Z,93.80
2019-05-15T04:30:39.302Z,93.60
2019-05-15T04:33:09.396Z,92.50
2019-05-15T04:35:40.285Z,92.30
2019-05-15T04:38:09.325Z,92.50
2019-05-15T04:40:39.813Z,92.70
2019-05-15T04:43:39.633Z,92.30
2019-05-15T04:46:02.982Z,91.80
2019-05-15T04:48:30.468Z,92.00
2019-05-15T04:50:58.904Z,91.60
2019-05-15T04:53:32.737Z,91.10
2019-05-15T04:55:59.745Z,91.70
2019-05-15T04:58:29.624Z,90.90
2019-05-15T05:00:59.938Z,91.30
2019-05-15T05:03:29.292Z,91.20
2019-05-15T05:05:58.959Z,90.90
2019-05-15T05:08:28.698Z,91.00
2019-05-15T05:10:55.068Z,90.50
2019-05-15T05:13:22.716Z,91.20
2019-05-15T05:15:50.747Z,91.10
2019-05-15T05:18:19.764Z,90.50
2019-05-15T05:20:48.495Z,90.50
2019-05-15T05:23:18.892Z,90.60
2019-05-15T05:25:48.829Z,90.60
2019-05-15T05:28:17.989Z,91.10
2019-05-15T05:30:48.279Z,89.90
2019-05-15T05:33:17.991Z,90.20
2019-05-15T05:35:48.659Z,89.40
2019-05-15T05:38:18.731Z,89.40
2019-05-15T05:40:45.947Z,89.30
2019-05-15T05:43:13.735Z,89.20
2019-05-15T05:45:41.249Z,88.70
2019-05-15T05:48:08.896Z,89.40
2019-05-15T05:50:38.632Z,89.70
2019-05-15T05:53:08.780Z,89.00
2019-05-15T05:55:38.465Z,89.30
2019-05-15T05:58:08.031Z,89.20
2019-05-15T06:00:43.475Z,89.50
2019-05-15T06:03:11.028Z,89.30
2019-05-15T06:05:38.984Z,89.10
2019-05-15T06:08:08.117Z,88.40
2019-05-15T06:10:38.374Z,88.80
2019-05-15T06:13:08.500Z,88.60
2019-05-15T06:15:34.933Z,89.20
2019-05-15T06:18:03.237Z,89.00
2019-05-15T06:20:30.895Z,89.10
2019-05-15T06:22:59.652Z,89.20
2019-05-15T06:25:30.510Z,88.90
2019-05-15T06:27:58.345Z,87.90
2019-05-15T06:30:30.599Z,88.10
2019-05-15T06:33:08.314Z,87.90
2019-05-15T06:35:30.913Z,87.80
2019-05-15T06:37:55.587Z,87.60
2019-05-15T06:40:23.162Z,87.60
2019-05-15T06:42:51.959Z,87.60
2019-05-15T06:45:19.845Z,86.80
2019-05-15T06:47:48.256Z,88.10
2019-05-15T06:50:30.958Z,87.40
2019-05-15T06:52:58.771Z,86.90
2019-05-15T06:55:28.799Z,87.00
2019-05-15T06:57:58.414Z,86.90
2019-05-15T07:00:28.227Z,87.40
2019-05-15T07:02:58.200Z,86.90
2019-05-15T07:05:25.342Z,87.60
2019-05-15T07:07:53.118Z,87.40
2019-05-15T07:10:21.025Z,86.60
2019-05-15T07:12:51.452Z,86.20
2019-05-15T07:15:18.370Z,86.00
2019-05-15T07:17:48.245Z,85.80
2019-05-15T07:20:15.776Z,86.20
2019-05-15T07:22:43.255Z,87.20
2019-05-15T07:25:10.927Z,86.40
2019-05-15T07:27:39.218Z,86.90
2019-05-15T07:30:12.016Z,87.10
2019-05-15T07:32:39.709Z,86.70
2019-05-15T07:35:08.716Z,86.80
2019-05-15T07:37:38.627Z,86.50
2019-05-15T07:40:08.365Z,86.90
2019-05-15T07:42:38.500Z,86.80
2019-05-15T07:45:08.316Z,86.90
2019-05-15T07:47:38.312Z,86.90
2019-05-15T07:50:08.871Z,86.90
2019-05-15T07:52:39.842Z,87.10
2019-05-15T07:55:08.735Z,87.20
2019-05-15T07:57:39.333Z,87.20
2019-05-15T08:00:08.342Z,85.50
2019-05-15T08:02:38.005Z,85.30
2019-05-15T08:05:08.353Z,86.00
2019-05-15T08:07:38.711Z,85.20
2019-05-15T08:10:08.709Z,85.20
2019-05-15T08:12:38.919Z,84.60
2019-05-15T08:15:08.859Z,85.40
2019-05-15T08:17:56.020Z,85.10
2019-05-15T08:20:09.024Z,83.60
2019-05-15T08:22:38.345Z,84.50
2019-05-15T08:25:07.622Z,83.70
2019-05-15T08:27:38.077Z,83.20
2019-05-15T08:30:05.640Z,84.10
2019-05-15T08:32:33.175Z,85.10
2019-05-15T08:35:00.650Z,84.20
2019-05-15T08:37:29.328Z,84.20
2019-05-15T08:39:59.523Z,84.10
2019-05-15T08:42:28.087Z,82.70
2019-05-15T08:44:58.362Z,82.40
2019-05-15T08:47:29.839Z,81.70
2019-05-15T08:49:58.718Z,78.80
2019-05-15T08:52:28.271Z,79.40
2019-05-15T08:54:59.106Z,79.70
2019-05-15T08:57:29.483Z,78.90
2019-05-15T08:59:58.802Z,78.00
2019-05-15T09:02:28.778Z,78.10
2019-05-15T09:04:58.578Z,77.80
2019-05-15T09:07:28.752Z,76.40
2019-05-15T09:09:58.533Z,75.30
2019-05-15T09:12:29.474Z,75.00
2019-05-15T09:14:58.647Z,73.80
2019-05-15T09:17:28.566Z,73.90
2019-05-15T09:19:58.988Z,73.20
2019-05-15T09:22:29.134Z,71.70
2019-05-15T09:24:58.956Z,71.00
2019-05-15T09:27:28.803Z,71.20
2019-05-15T09:29:59.207Z,68.80
2019-05-15T09:32:28.468Z,69.90
2019-05-15T09:34:59.247Z,68.90
2019-05-15T09:37:28.653Z,69.00
2019-05-15T09:39:58.253Z,69.00
2019-05-15T09:42:25.316Z,69.00
2019-05-15T09:44:52.882Z,68.90
2019-05-15T09:47:20.382Z,67.60
2019-05-15T09:49:48.454Z,68.00
2019-05-15T09:52:20.138Z,67.40
2019-05-15T09:54:45.765Z,67.00
2019-05-15T09:57:13.273Z,66.50
2019-05-15T09:59:41.049Z,66.10
2019-05-15T10:02:09.267Z,65.80
2019-05-15T10:04:39.086Z,66.20
2019-05-15T10:07:08.238Z,67.20
2019-05-15T10:09:35.853Z,66.50
2019-05-15T10:12:03.610Z,66.50
2019-05-15T10:14:32.305Z,65.30
2019-05-15T10:16:59.875Z,65.30
2019-05-15T10:19:29.097Z,64.40
2019-05-15T10:21:59.262Z,64.40
2019-05-15T10:24:28.070Z,64.60
2019-05-15T10:26:57.945Z,63.20
2019-05-15T10:29:25.379Z,61.30
2019-05-15T10:31:52.964Z,60.80
2019-05-15T10:34:20.510Z,60.30
2019-05-15T10:36:49.578Z,60.20
2019-05-15T10:39:18.217Z,60.20
2019-05-15T10:41:48.104Z,59.50
2019-05-15T10:44:17.995Z,58.90
2019-05-15T10:46:44.815Z,59.60
2019-05-15T10:49:12.409Z,57.70
2019-05-15T10:51:39.975Z,57.30
2019-05-15T10:54:08.498Z,58.10
2019-05-15T10:57:00.422Z,58.00
2019-05-15T10:59:27.599Z,58.10
2019-05-15T11:01:55.027Z,56.90
2019-05-15T11:04:22.616Z,57.20
2019-05-15T11:06:50.057Z,54.80
2019-05-15T11:09:18.595Z,54.50
2019-05-15T11:11:51.157Z,54.00
2019-05-15T11:14:18.300Z,55.60
2019-05-15T11:16:45.358Z,54.30
2019-05-15T11:19:13.042Z,53.50
2019-05-15T11:21:43.403Z,53.10
2019-05-15T11:24:09.966Z,52.90
2019-05-15T11:26:39.093Z,51.40
2019-05-15T11:29:09.554Z,51.50
2019-05-15T11:31:36.243Z,52.20
2019-05-15T11:34:03.816Z,51.80
2019-05-15T11:36:31.552Z,52.10
2019-05-15T11:38:59.162Z,52.40
2019-05-15T11:41:29.228Z,52.80
2019-05-15T11:43:56.151Z,52.70
2019-05-15T11:46:25.808Z,52.10
2019-05-15T11:48:53.019Z,52.00
2019-05-15T11:51:20.673Z,52.20
2019-05-15T11:53:49.210Z,54.10
2019-05-15T11:56:18.856Z,53.20
2019-05-15T11:58:46.566Z,52.90
2019-05-15T12:01:14.369Z,52.60
2019-05-15T12:03:41.959Z,52.50
2019-05-15T12:06:18.553Z,53.40
2019-05-15T12:08:40.148Z,53.70
2019-05-15T12:11:11.932Z,53.30
2019-05-15T12:13:38.179Z,53.50
2019-05-15T12:16:06.057Z,53.40
2019-05-15T12:18:33.758Z,53.80
2019-05-15T12:21:01.344Z,54.10
2019-05-15T12:23:29.479Z,54.00
2019-05-15T12:25:59.758Z,54.60
2019-05-15T12:28:29.618Z,54.80
2019-05-15T12:30:59.681Z,56.20
2019-05-15T12:33:25.446Z,56.90
2019-05-15T12:35:53.169Z,56.90
2019-05-15T12:38:20.652Z,56.90
2019-05-15T13:00:44.330Z,55.20
2019-05-15T13:03:11.880Z,54.40
2019-05-15T13:05:39.567Z,54.10
2019-05-15T13:08:08.351Z,54.00
2019-05-15T13:10:38.483Z,54.50
2019-05-15T13:13:06.531Z,54.00
2019-05-15T13:15:35.188Z,54.80
2019-05-15T13:18:02.810Z,55.30
2019-05-15T13:20:30.356Z,55.50
2019-05-15T13:22:59.322Z,53.90
2019-05-15T13:25:27.976Z,55.80
2019-05-15T13:27:57.917Z,56.70
2019-05-15T13:30:25.280Z,56.20
2019-05-15T13:32:52.960Z,56.20
2019-05-15T13:35:20.506Z,57.00
2019-05-15T13:37:49.705Z,57.30
2019-05-15T13:40:18.689Z,56.40
2019-05-15T13:42:48.593Z,58.10
2019-05-15T13:45:18.301Z,57.00
2019-05-15T13:47:45.925Z,58.40
2019-05-15T13:50:13.564Z,57.60
2019-05-15T13:52:41.174Z,57.50
2019-05-15T13:55:08.846Z,58.00
2019-05-15T13:57:38.382Z,57.60
2019-05-15T14:00:09.413Z,57.70
2019-05-15T14:02:38.787Z,57.50
2019-05-15T14:05:09.556Z,57.60
2019-05-15T14:07:49.057Z,59.30
2019-05-15T14:10:09.396Z,58.40
2019-05-15T14:12:38.329Z,58.10
2019-05-15T14:15:09.036Z,57.80
2019-05-15T14:17:37.699Z,58.10
2019-05-15T14:20:05.644Z,57.90
2019-05-15T14:22:33.317Z,58.10
2019-05-15T14:25:04.017Z,58.60
2019-05-15T14:27:31.816Z,59.50
2019-05-15T14:30:00.353Z,59.70
2019-05-15T14:32:38.115Z,58.80
2019-05-15T14:34:58.530Z,59.10
2019-05-15T14:37:28.575Z,58.50
2019-05-15T14:39:57.932Z,58.80
2019-05-15T14:42:25.364Z,58.60
2019-05-15T14:44:53.135Z,59.20
2019-05-15T14:47:20.650Z,58.90
2019-05-15T14:49:49.637Z,59.50
2019-05-15T14:52:17.948Z,58.80
2019-05-15T14:54:45.820Z,60.40
2019-05-15T14:57:13.391Z,59.30
2019-05-15T14:59:41.186Z,59.60
2019-05-15T15:02:09.173Z,60.30
2019-05-15T15:04:39.217Z,60.00
2019-05-15T15:07:08.730Z,60.40
2019-05-15T15:09:35.989Z,60.50
2019-05-15T15:12:03.879Z,60.40
2019-05-15T15:14:31.599Z,59.70
2019-05-15T15:16:59.101Z,61.20
2019-05-15T15:19:29.145Z,61.10
2019-05-15T15:21:58.020Z,60.40
2019-05-15T15:24:25.793Z,61.10
2019-05-15T15:26:53.773Z,60.60
2019-05-15T15:29:21.374Z,60.80
2019-05-15T15:31:49.638Z,60.10
2019-05-15T15:34:19.620Z,60.40
2019-05-15T15:36:48.425Z,61.60
2019-05-15T15:39:16.447Z,61.60
2019-05-15T15:41:44.129Z,61.80
2019-05-15T15:44:11.751Z,61.50
2019-05-15T15:46:39.658Z,61.60
2019-05-15T15:49:08.763Z,60.10
2019-05-15T15:51:38.033Z,60.90
2019-05-15T15:54:08.314Z,61.70
2019-05-15T15:56:35.284Z,61.10
2019-05-15T15:59:02.766Z,60.20
2019-05-15T16:01:31.461Z,60.60
2019-05-15T16:03:59.224Z,61.60
2019-05-15T16:06:29.199Z,61.30
2019-05-15T16:08:56.284Z,61.50
2019-05-15T16:11:24.195Z,62.20
2019-05-15T16:13:52.072Z,61.80
2019-05-15T16:16:19.776Z,61.60
2019-05-15T16:18:49.176Z,61.50
2019-05-15T16:21:19.136Z,61.80
2019-05-15T16:24:14.830Z,62.70
2019-05-15T16:26:35.478Z,63.10
2019-05-15T16:29:03.666Z,62.90
2019-05-15T16:31:31.320Z,61.60
2019-05-15T16:33:59.107Z,62.00
2019-05-15T16:36:26.711Z,62.30
2019-05-15T16:39:05.220Z,62.40
2019-05-15T16:41:23.853Z,62.90
2019-05-15T16:43:51.518Z,63.00
2019-05-15T16:46:19.369Z,63.10
2019-05-15T16:48:49.302Z,63.00
2019-05-15T16:51:18.013Z,63.90
2019-05-15T16:53:45.765Z,64.10
2019-05-15T16:56:13.530Z,64.50
2019-05-15T16:58:41.214Z,63.90
2019-05-15T17:01:08.808Z,65.10
2019-05-15T17:03:38.025Z,65.30
2019-05-15T17:06:05.805Z,65.20
2019-05-15T17:08:33.923Z,65.50
2019-05-15T17:11:01.536Z,64.60
2019-05-15T17:13:29.100Z,65.00
2019-05-15T17:15:59.114Z,64.80
2019-05-15T17:18:26.683Z,65.30
2019-05-15T17:20:54.542Z,66.20
2019-05-15T17:23:22.239Z,65.70
2019-05-15T17:25:50.884Z,65.70
2019-05-15T17:28:20.676Z,66.40
2019-05-15T17:30:48.885Z,67.60
2019-05-15T17:33:18.474Z,69.30
2019-05-15T17:35:48.538Z,67.60
2019-05-15T17:38:18.144Z,67.70
2019-05-15T17:40:48.570Z,69.70
2019-05-15T17:43:18.214Z,70.40
2019-05-15T17:45:48.893Z,71.10
2019-05-15T17:48:19.364Z,71.60
2019-05-15T17:50:52.239Z,70.50
2019-05-15T17:53:17.991Z,72.50
2019-05-15T17:55:47.933Z,72.50
2019-05-15T17:58:15.899Z,73.30
2019-05-15T18:00:48.630Z,73.70
2019-05-15T18:03:18.950Z,74.70
2019-05-15T18:05:48.282Z,75.30
2019-05-15T18:08:15.426Z,73.70
2019-05-15T18:10:43.156Z,74.30
2019-05-15T18:13:11.031Z,74.10
2019-05-15T18:15:38.754Z,74.40
2019-05-15T18:18:09.589Z,74.60
2019-05-15T18:20:38.130Z,74.00
2019-05-15T18:23:05.338Z,73.30
2019-05-15T18:25:32.941Z,73.00
2019-05-15T18:28:00.603Z,73.30
2019-05-15T18:30:28.728Z,72.40
2019-05-15T18:32:58.791Z,72.30
2019-05-15T18:35:29.071Z,72.50
2019-05-15T18:37:58.885Z,72.70
2019-05-15T18:40:27.772Z,72.40
2019-05-15T18:42:58.956Z,72.50
2019-05-15T18:45:25.639Z,72.90
2019-05-15T18:47:53.713Z,73.60
2019-05-15T18:50:21.392Z,74.00
2019-05-15T18:52:48.997Z,75.00
2019-05-15T18:55:18.431Z,75.30
2019-05-15T18:57:48.486Z,74.90
2019-05-15T19:00:18.399Z,75.30
2019-05-15T19:02:45.934Z,75.50
2019-05-15T19:05:13.837Z,75.10
2019-05-15T19:07:41.426Z,75.30
2019-05-15T19:10:10.040Z,75.30
2019-05-15T19:12:38.815Z,75.80
2019-05-15T19:15:08.979Z,76.20
2019-05-15T19:17:38.580Z,75.90
2019-05-15T19:20:08.368Z,77.40
2019-05-15T19:22:38.620Z,77.40
2019-05-15T19:25:05.710Z,78.30
2019-05-15T19:27:33.294Z,78.60
2019-05-15T19:30:01.061Z,78.80
2019-05-15T19:32:28.557Z,79.50
2019-05-15T19:34:56.260Z,79.50
2019-05-15T19:37:24.607Z,80.80
2019-05-15T19:39:52.741Z,81.80
2019-05-15T19:42:20.553Z,82.70
2019-05-15T19:44:48.570Z,83.70
2019-05-15T19:47:18.559Z,83.70
2019-05-15T19:49:48.364Z,84.40
2019-05-15T19:52:17.873Z,84.40
2019-05-15T19:54:45.748Z,85.10
2019-05-15T19:57:13.409Z,85.80
2019-05-15T19:59:41.126Z,86.00
2019-05-15T20:02:08.925Z,86.90
2019-05-15T20:04:38.551Z,87.70
2019-05-15T20:07:08.040Z,87.20
2019-05-15T20:09:38.373Z,88.10
2019-05-15T20:12:06.281Z,88.90
2019-05-15T20:14:34.142Z,89.30
2019-05-15T20:17:03.119Z,89.00
2019-05-15T20:19:30.924Z,88.80
2019-05-15T20:21:58.624Z,88.60
2019-05-15T20:24:28.570Z,87.70
2019-05-15T20:26:55.663Z,87.30
2019-05-15T20:29:23.570Z,87.60
2019-05-15T20:31:51.940Z,87.90
2019-05-15T20:34:19.757Z,87.40
2019-05-15T20:36:48.811Z,88.10
2019-05-15T20:39:16.608Z,88.20
2019-05-15T20:41:44.388Z,88.30
2019-05-15T20:44:12.065Z,88.30
2019-05-15T20:46:39.952Z,88.90
2019-05-15T20:49:08.570Z,89.20
2019-05-15T20:51:38.451Z,89.30
2019-05-15T20:54:08.015Z,89.00
2019-05-15T20:56:35.599Z,88.70
2019-05-15T20:59:03.272Z,89.20
2019-05-15T21:01:30.926Z,89.50
2019-05-15T21:03:59.539Z,89.30
2019-05-15T21:06:28.358Z,88.90
2019-05-15T21:08:58.052Z,89.30
2019-05-15T21:11:26.034Z,88.60
2019-05-15T21:13:53.936Z,88.90
2019-05-15T21:16:21.609Z,89.00
2019-05-15T21:18:49.283Z,89.40
2019-05-15T21:21:19.213Z,89.50
2019-05-15T21:23:46.540Z,90.00
2019-05-15T21:26:14.507Z,90.60
2019-05-15T21:28:42.104Z,90.50
2019-05-15T21:31:09.877Z,91.10
2019-05-15T21:33:37.394Z,91.90
2019-05-15T21:36:05.139Z,92.00
2019-05-15T21:38:33.113Z,92.50
2019-05-15T21:41:01.065Z,92.60
2019-05-15T21:43:28.755Z,93.00
2019-05-15T21:45:58.640Z,93.50
2019-05-15T21:48:25.916Z,93.80
2019-05-15T21:50:54.934Z,94.10
2019-05-15T21:53:22.710Z,94.40
2019-05-15T21:55:50.851Z,94.40
2019-05-15T21:58:18.884Z,94.60
2019-05-15T22:00:50.146Z,95.00
2019-05-15T22:03:19.788Z,95.10
2019-05-15T22:05:48.798Z,94.90
2019-05-15T22:08:18.348Z,95.30
2019-05-15T22:10:48.212Z,95.10
2019-05-15T22:13:17.252Z,95.20
2019-05-15T22:15:45.524Z,95.50
2019-05-15T22:18:13.782Z,95.30
2019-05-15T22:20:42.062Z,95.40
2019-05-15T22:23:10.027Z,95.50
2019-05-15T22:25:38.526Z,95.50
2019-05-15T22:28:06.461Z,95.80
2019-05-15T22:30:34.360Z,95.30
2019-05-15T22:33:01.977Z,94.70
2019-05-15T22:35:29.792Z,95.10
2019-05-15T22:37:58.468Z,95.10
2019-05-15T22:40:28.657Z,95.20
2019-05-15T22:42:55.909Z,95.30
2019-05-15T22:45:23.770Z,95.40
2019-05-15T22:47:51.354Z,95.70
2019-05-15T22:50:19.176Z,95.80
2019-05-15T22:52:49.222Z,95.70
2019-05-15T22:55:18.273Z,95.30
2019-05-15T22:57:48.154Z,95.90
2019-05-15T23:00:17.706Z,95.70
2019-05-15T23:02:45.766Z,95.80
2019-05-15T23:05:23.826Z,95.90
2019-05-15T23:07:42.801Z,96.00
2019-05-15T23:10:10.481Z,95.80
2019-05-15T23:12:38.368Z,96.00
2019-05-15T23:15:08.636Z,95.70
2019-05-15T23:17:38.134Z,95.80
2019-05-15T23:20:08.695Z,95.80
2019-05-15T23:22:38.332Z,95.80
2019-05-15T23:25:05.736Z,96.00
2019-05-15T23:27:33.208Z,96.20
2019-05-15T23:30:00.969Z,96.10
2019-05-15T23:32:29.632Z,96.20
2019-05-15T23:34:58.435Z,96.20
2019-05-15T23:37:28.039Z,96.60
2019-05-15T23:39:57.842Z,96.00
2019-05-15T23:42:25.154Z,96.40
2019-05-15T23:44:52.670Z,95.80
2019-05-15T23:47:20.234Z,95.90
2019-05-15T23:49:48.530Z,96.00
2019-05-15T23:52:16.175Z,96.00
2019-05-15T23:54:43.741Z,95.80
2019-05-15T23:57:11.274Z,96.40
2019-05-15T23:59:38.746Z,95.90
